Flight Track Log - Related Links

Times and Time Zones

All times are in EST time to prevent confusion due to time zone crossing. See the N65CW flight status page for this flight to view local times or setup timezone preferences in your user account.

Time Position Orientation Groundspeed Altitude Reporting Facility
EST Latitude Longitude Course Direction KTS MPH feet Rate Location/Type
04:44PM 30.3361 -81.5061 336° Northwest 94 108 400  Level Jacksonville Center
04:45PM 30.3594 -81.5181 336° Northwest 123 142 1,400 931 Climbing Jacksonville Center
04:46PM 30.3722 -81.5564 291° West 135 155 2,200 879 Climbing Jacksonville Center
04:47PM 30.3769 -81.5972 278° West 133 153 3,100 879 Climbing Jacksonville Center
04:48PM 30.3836 -81.6381 281° West 132 152 3,900 793 Climbing Jacksonville Center
04:49PM 30.4069 -81.6714 309° West 147 169 4,700 893 Climbing Jacksonville Center
04:50PM 30.4422 -81.6711 360° North 125 144 5,700 885 Climbing Jacksonville Center
04:51PM 30.4736 -81.6586 19° North 116 133 6,500 639 Climbing Jacksonville Center
04:52PM 30.5069 -81.6703 343° North 133 153 7,000 197 Climbing Jacksonville Center
04:53PM 30.5303 -81.7083 305° West 148 170 6,900  Descending Jacksonville Center
04:54PM 30.5517 -81.7492 301° West 155 178 7,000 49 Climbing Jacksonville Center
04:55PM 30.5811 -81.7875 312° West 151 174 7,000  Level Jacksonville Center
04:56PM 30.6025 -81.8283 301° West 156 180 7,000  Level Jacksonville Center
04:57PM 30.6278 -81.8714 304° West 151 174 7,000  Level Jacksonville Center
04:58PM 30.6511 -81.9122 304° West 153 176 7,000  Level Jacksonville Center
04:59PM 30.6744 -81.9531 304° West 154 177 7,000  Level Jacksonville Center
05:00PM 30.6933 -81.9892 301° West 155 178 7,000  Level Jacksonville Center
05:00PM 30.6997 -81.9964 316° Northwest 153 176 7,000  Level Jacksonville Center
05:01PM 30.7186 -82.0275 305° West 155 178 7,000  Level Jacksonville Center
05:01PM 30.7231 -82.0372 298° West 153 176 7,000  Level Jacksonville Center
05:02PM 30.7419 -82.0683 305° West 155 178 7,000  Level Jacksonville Center
05:02PM 30.7483 -82.0803 302° West 153 176 7,000  Level Jacksonville Center
05:03PM 30.7653 -82.1092 304° West 155 178 7,000  Level Jacksonville Center
05:03PM 30.7736 -82.1214 308° West 153 176 7,000  Level Jacksonville Center
05:04PM 30.7883 -82.1525 299° West 155 178 7,000  Level Jacksonville Center
05:05PM 30.8117 -82.1936 303° West 161 185 7,000  Level Jacksonville Center
05:06PM 30.8347 -82.2322 305° West 161 185 7,000  Level Jacksonville Center
05:07PM 30.8600 -82.2731 306° West 161 185 7,000  Level Jacksonville Center
05:08PM 30.8833 -82.3142 303° West 161 185 7,000 -300 Level Jacksonville Center
05:09PM 30.9086 -82.3575 304° West 161 185 6,400 -652 Descending Jacksonville Center
05:10PM 30.9233 -82.3817 305° West 173 199 6,000 -769 Descending Jacksonville Center
05:10PM 30.9294 -82.3914 306° West 177 204 5,900  Descending Jacksonville Center
05:10PM 30.9400 -82.4008 322° Northwest 166 191 6,000 100 Climbing Jacksonville Center
05:11PM 30.9547 -82.4300 300° West 173 199 6,000  Level Jacksonville Center
05:11PM 30.9589 -82.4492 284° West 166 191 6,000  Level Jacksonville Center
05:12PM 30.9778 -82.4783 307° West 163 188 6,000  Level Jacksonville Center
05:12PM 30.9861 -82.4950 300° West 166 191 6,000  Level Jacksonville Center
05:13PM 31.0031 -82.5194 309° West 163 188 6,000  Level Jacksonville Center
05:13PM 31.0114 -82.5361 300° West 166 191 6,000  Level Jacksonville Center
05:14PM 31.0303 -82.5653 307° West 162 186 6,000  Level Jacksonville Center
05:14PM 31.0367 -82.5797 297° West 166 191 6,000  Level Jacksonville Center
05:15PM 31.0575 -82.6111 308° West 162 186 6,000  Level Jacksonville Center
05:15PM 31.0617 -82.6233 292° West 166 191 6,000  Level Jacksonville Center
05:16PM 31.0869 -82.6694 303° West 166 191 6,000  Level Jacksonville Center
05:17PM 31.1058 -82.7008 305° West 164 189 6,000  Level Jacksonville Center
05:17PM 31.1119 -82.7081 315° West 166 191 6,000  Level Jacksonville Center
05:18PM 31.1308 -82.7444 301° West 165 190 6,000  Level Jacksonville Center
05:18PM 31.1331 -82.7542 285° West 171 197 6,000  Level Jacksonville Center
05:19PM 31.1581 -82.7906 309° West 163 188 6,000  Level Jacksonville Center
05:19PM 31.1581 -82.7978 270° West 165 190 6,000  Level Jacksonville Center
05:20PM 31.1811 -82.8319 308° West 164 189 6,000  Level Jacksonville Center
05:21PM 31.2081 -82.8781 304° West 164 189 6,000  Level Jacksonville Center
05:22PM 31.2333 -82.9242 303° West 164 189 6,000  Level Jacksonville Center
05:23PM 31.2603 -82.9728 303° West 165 190 6,000  Level Jacksonville Center
05:24PM 31.2875 -83.0189 305° West 167 192 6,000  Level Jacksonville Center
05:25PM 31.3144 -83.0678 303° West 166 191 6,000  Level Jacksonville Center
05:26PM 31.3375 -83.1067 305° West 167 192 6,000  Level Jacksonville Center
05:27PM 31.3644 -83.1578 302° West 165 190 6,000  Level Jacksonville Center
05:28PM 31.3894 -83.2017 304° West 164 189 6,000  Level Jacksonville Center
05:29PM 31.4164 -83.2481 304° West 165 190 6,000  Level Jacksonville Center
05:30PM 31.4414 -83.2894 305° West 165 190 6,000  Level Jacksonville Center
05:31PM 31.4706 -83.3408 304° West 170 196 6,000  Level Jacksonville Center
05:32PM 31.4953 -83.3847 303° West 170 196 6,000  Level Jacksonville Center
05:33PM 31.5203 -83.4311 302° West 170 196 6,000  Level Jacksonville Center
05:34PM 31.5472 -83.4778 304° West 170 196 6,000  Level Jacksonville Center
05:35PM 31.5719 -83.5217 303° West 165 190 6,000  Level Jacksonville Center
05:36PM 31.5969 -83.5683 302° West 165 190 6,000  Level Jacksonville Center
05:37PM 31.6217 -83.6122 303° West 165 190 6,000  Level Jacksonville Center
05:38PM 31.6486 -83.6564 306° West 165 190 6,000  Level Jacksonville Center
05:39PM 31.6711 -83.7006 301° West 165 190 6,000  Level Jacksonville Center
05:40PM 31.7000 -83.7497 305° West 165 190 6,000  Level Jacksonville Center
05:41PM 31.7250 -83.7964 302° West 165 190 6,000  Level Jacksonville Center
05:42PM 31.7497 -83.8406 303° West 165 190 6,000  Level Jacksonville Center
05:43PM 31.7744 -83.8847 303° West 165 190 6,000  Level Jacksonville Center
05:44PM 31.7989 -83.9314 302° West 165 190 6,000  Level Jacksonville Center
05:45PM 31.8236 -83.9733 305° West 165 190 6,000  Level Jacksonville Center
05:46PM 31.8483 -84.0200 302° West 165 190 6,000  Level Jacksonville Center
05:47PM 31.8731 -84.0644 303° West 165 190 6,000  Level Jacksonville Center
05:50PM 31.9333 -84.1667 305° West 164 189 6,000  Level Atlanta TRACON
05:51PM 31.9500 -84.2167 291° West 160 184 6,000 -53 Level Atlanta TRACON
05:51PM 31.9833 -84.2500 320° Northwest 163 188 5,900 -53 Descending Atlanta TRACON
05:52PM 32.0000 -84.3000 291° West 161 185 5,900  Level Atlanta TRACON
05:53PM 32.0333 -84.3333 320° Northwest 163 188 5,900  Level Atlanta TRACON
05:54PM 32.0500 -84.3833 291° West 159 183 5,900  Level Atlanta TRACON
05:55PM 32.0500 -84.4500 270° West 158 182 5,900  Level Atlanta TRACON
05:56PM 32.0667 -84.5000 291° West 162 186 5,900  Level Atlanta TRACON
05:57PM 32.0833 -84.5500 291° West 167 192 5,900  Level Atlanta TRACON
05:58PM 32.1000 -84.6000 291° West 163 188 5,900  Level Atlanta TRACON
05:59PM 32.1167 -84.6500 291° West 165 190 5,900  Level Atlanta TRACON
06:00PM 32.1167 -84.7000 270° West 167 192 5,900  Level Atlanta TRACON
06:01PM 32.1333 -84.7500 291° West 168 193 5,900  Level Atlanta TRACON
06:02PM 32.1500 -84.8000 292° West 166 191 5,900  Level Atlanta TRACON
06:03PM 32.1833 -84.8500 308° West 173 199 5,900  Level Atlanta TRACON
06:04PM 32.2167 -84.8833 320° Northwest 173 199 5,900 -50 Level Atlanta TRACON
06:06PM 32.2333 -84.9333 292° West 177 204 5,800 -298 Descending Atlanta TRACON
06:07PM 32.2833 -84.9833 320° Northwest 187 215 5,300 -450 Descending Atlanta TRACON
06:08PM 32.3167 -85.0167 320° Northwest 183 211 4,900 -450 Descending Atlanta TRACON
06:09PM 32.3500 -85.0667 308° West 179 206 4,400 -450 Descending Atlanta TRACON
06:10PM 32.3833 -85.1167 308° West 180 207 4,000 -250 Descending Atlanta TRACON
06:11PM 32.4000 -85.1500 301° West 166 191 3,900 -50 Descending Atlanta TRACON
06:12PM 32.4333 -85.2000 308° West 160 184 3,900 -50 Level Atlanta TRACON
06:13PM 32.4667 -85.2333 320° Northwest 163 188 3,800 -250 Descending Atlanta TRACON
06:14PM 32.5000 -85.2667 320° Northwest 164 189 3,400 -400 Descending Atlanta TRACON

Login

Don't have an account? Register now (free) for customized features, flight alerts, and more!